weather June 20, 2001

@

2001/06/20 09:50 UTC

LIEO 200950Z 07007KT 9999 SCT020 29/// Q1016

2001/06/20 09:20 UTC

LGIR 200920Z 04007KT 9999 FEW020 26/12 Q1010

2001/06/20 09:00 UTC

HELX 29004KT CAVOK 36/15 Q1008 NOSIG

2001/06/20 10:00 UTC

OBBI 201000Z 34021KT CAVOK 37/19 Q1001 NOSIG


Ads by TOK2